createdAt,value
2019-03-10T00:00:53.812Z,12.19
2019-03-10T00:03:45.891Z,12.22
2019-03-10T00:06:36.044Z,12.21
2019-03-10T00:09:26.110Z,12.18
2019-03-10T00:12:16.424Z,12.15
2019-03-10T00:15:07.018Z,12.19
2019-03-10T00:17:57.488Z,12.20
2019-03-10T00:20:47.744Z,12.21
2019-03-10T00:23:37.787Z,12.22
2019-03-10T00:26:28.076Z,12.20
2019-03-10T00:29:18.520Z,12.19
2019-03-10T00:32:08.996Z,12.18
2019-03-10T00:34:59.508Z,12.18
2019-03-10T00:37:49.930Z,12.12
2019-03-10T00:41:16.587Z,12.03
2019-03-10T00:44:59.075Z,11.95
2019-03-10T00:48:49.488Z,11.98
2019-03-10T00:52:09.543Z,12.01
2019-03-10T00:54:59.642Z,11.97
2019-03-10T00:57:52.754Z,11.92
2019-03-10T01:00:43.066Z,11.89
2019-03-10T01:03:33.167Z,11.96
2019-03-10T01:06:23.462Z,11.98
2019-03-10T01:09:13.469Z,11.94
2019-03-10T01:12:03.601Z,11.93
2019-03-10T01:14:53.921Z,11.98
2019-03-10T01:17:45.198Z,11.96
2019-03-10T01:20:36.572Z,12.00
2019-03-10T01:23:27.138Z,11.97
2019-03-10T01:26:17.640Z,12.01
2019-03-10T01:29:07.960Z,12.04
2019-03-10T01:32:53.126Z,12.03
2019-03-10T01:35:43.863Z,12.07
2019-03-10T01:38:34.137Z,12.05
2019-03-10T01:41:24.737Z,12.03
2019-03-10T01:44:14.870Z,12.07
2019-03-10T01:47:04.942Z,12.07
2019-03-10T01:49:55.176Z,12.05
2019-03-10T01:52:45.524Z,12.12
2019-03-10T01:55:35.863Z,12.01
2019-03-10T01:58:26.147Z,12.09
2019-03-10T02:01:16.064Z,12.05
2019-03-10T02:04:06.216Z,12.01
2019-03-10T02:06:56.604Z,12.16
2019-03-10T02:09:47.087Z,12.40
2019-03-10T02:12:37.617Z,12.66
2019-03-10T02:15:27.972Z,12.90
2019-03-10T02:18:18.293Z,13.07
2019-03-10T02:21:08.665Z,13.13
2019-03-10T02:23:58.708Z,13.34
2019-03-10T02:26:49.070Z,13.45
2019-03-10T02:29:39.393Z,13.48
2019-03-10T02:32:32.349Z,13.64
2019-03-10T02:35:22.786Z,13.67
2019-03-10T02:38:12.880Z,13.68
2019-03-10T02:41:03.289Z,13.70
2019-03-10T02:43:53.702Z,13.55
2019-03-10T02:46:44.042Z,13.47
2019-03-10T02:49:34.006Z,13.21
2019-03-10T02:52:24.242Z,13.21
2019-03-10T02:55:14.542Z,13.16
2019-03-10T02:58:04.789Z,13.13
2019-03-10T03:00:54.862Z,13.10
2019-03-10T03:03:45.223Z,13.10
2019-03-10T03:06:35.394Z,12.98
2019-03-10T03:09:28.269Z,12.79
2019-03-10T03:12:18.426Z,12.63
2019-03-10T03:15:09.113Z,12.65
2019-03-10T03:17:59.322Z,12.63
2019-03-10T03:20:49.331Z,12.65
2019-03-10T03:23:39.763Z,12.66
2019-03-10T03:26:30.052Z,12.65
2019-03-10T03:29:20.420Z,12.42
2019-03-10T03:32:10.642Z,12.53
2019-03-10T03:35:01.009Z,12.51
2019-03-10T03:37:51.429Z,12.45
2019-03-10T03:40:43.861Z,12.55
2019-03-10T03:43:33.952Z,12.54
2019-03-10T03:46:24.539Z,12.54
2019-03-10T03:49:15.078Z,12.41
2019-03-10T03:52:05.478Z,12.45
2019-03-10T03:54:55.485Z,12.52
2019-03-10T03:57:45.781Z,12.53
2019-03-10T04:00:36.182Z,12.53
2019-03-10T04:03:26.450Z,12.50
2019-03-10T04:06:16.575Z,12.57
2019-03-10T04:09:08.299Z,12.53
2019-03-10T04:11:58.362Z,12.52
2019-03-10T04:14:48.757Z,12.50
2019-03-10T04:17:39.216Z,12.52
2019-03-10T04:20:29.427Z,12.48
2019-03-10T04:23:19.673Z,12.42
2019-03-10T04:26:09.686Z,12.39
2019-03-10T04:28:59.970Z,12.46
2019-03-10T04:31:50.332Z,12.47
2019-03-10T04:34:40.359Z,12.55
2019-03-10T04:37:30.684Z,12.59
2019-03-10T04:40:20.932Z,12.57
2019-03-10T04:43:11.445Z,12.56
2019-03-10T04:46:01.945Z,12.58
2019-03-10T04:48:52.938Z,12.62
2019-03-10T04:51:43.137Z,12.64
2019-03-10T04:54:50.878Z,12.51
2019-03-10T04:57:57.509Z,12.39
2019-03-10T05:00:50.344Z,12.55
2019-03-10T05:03:41.721Z,12.65
2019-03-10T05:06:31.987Z,12.72
2019-03-10T05:09:22.261Z,12.81
2019-03-10T05:12:12.619Z,12.95
2019-03-10T05:15:02.816Z,13.18
2019-03-10T05:17:52.978Z,13.26
2019-03-10T05:20:43.246Z,13.69
2019-03-10T05:23:47.160Z,14.25
2019-03-10T05:26:37.196Z,14.77
2019-03-10T05:29:27.238Z,15.22
2019-03-10T05:32:17.237Z,15.73
2019-03-10T05:35:07.521Z,16.43
2019-03-10T05:37:57.833Z,17.17
2019-03-10T05:40:48.073Z,18.36
2019-03-10T05:43:38.388Z,18.36
2019-03-10T05:46:29.851Z,18.58
2019-03-10T05:49:20.245Z,18.88
2019-03-10T05:52:10.588Z,18.93
2019-03-10T05:55:00.969Z,18.77
2019-03-10T05:57:50.865Z,19.02
2019-03-10T06:00:42.974Z,19.64
2019-03-10T06:03:32.859Z,20.66
2019-03-10T06:06:22.751Z,21.30
2019-03-10T06:09:13.124Z,22.17
2019-03-10T06:12:04.066Z,22.87
2019-03-10T06:14:54.818Z,23.94
2019-03-10T06:17:47.449Z,24.91
2019-03-10T06:20:38.156Z,25.98
2019-03-10T06:23:28.734Z,26.25
2019-03-10T06:26:19.510Z,27.50
2019-03-10T06:29:10.627Z,27.99
2019-03-10T06:32:01.766Z,28.84
2019-03-10T06:34:52.739Z,28.92
2019-03-10T06:37:44.492Z,28.93
2019-03-10T06:40:35.416Z,29.21
2019-03-10T06:43:26.225Z,29.90
2019-03-10T06:46:16.547Z,29.29
2019-03-10T06:49:07.077Z,28.79
2019-03-10T06:51:57.946Z,29.86
2019-03-10T06:54:48.994Z,31.28
2019-03-10T06:57:39.990Z,31.04
2019-03-10T07:00:30.871Z,30.96
2019-03-10T07:03:21.387Z,30.96
2019-03-10T07:06:12.980Z,31.43
2019-03-10T07:09:04.186Z,31.68
2019-03-10T07:11:55.326Z,31.68
2019-03-10T07:14:45.987Z,32.73
2019-03-10T07:17:36.736Z,33.09
2019-03-10T07:20:27.656Z,32.29
2019-03-10T07:23:19.826Z,33.27
2019-03-10T07:26:10.218Z,33.93
2019-03-10T07:29:15.484Z,33.99
2019-03-10T07:32:23.020Z,34.94
2019-03-10T07:35:34.109Z,35.38
2019-03-10T07:38:33.918Z,33.25
2019-03-10T07:41:35.035Z,33.25
2019-03-10T07:44:51.368Z,31.83
2019-03-10T07:48:01.147Z,32.01
2019-03-10T07:51:02.469Z,29.86
2019-03-10T07:54:15.507Z,29.86
2019-03-10T07:57:28.883Z,30.03
2019-03-10T08:00:31.663Z,29.18
2019-03-10T08:03:38.281Z,30.36
2019-03-10T08:06:47.758Z,30.23
2019-03-10T08:10:00.500Z,29.28
2019-03-10T08:13:10.545Z,30.95
2019-03-10T08:16:38.798Z,32.42
2019-03-10T08:19:46.413Z,31.71
2019-03-10T08:23:01.446Z,31.01
2019-03-10T08:26:16.267Z,31.01
2019-03-10T08:29:32.047Z,29.70
2019-03-10T08:32:38.566Z,28.13
2019-03-10T08:35:45.669Z,26.97
2019-03-10T08:39:01.515Z,26.22
2019-03-10T08:42:20.324Z,26.10
2019-03-10T08:45:26.033Z,25.70
2019-03-10T08:48:28.059Z,25.62
2019-03-10T08:51:43.628Z,24.84
2019-03-10T08:54:46.606Z,24.59
2019-03-10T08:57:46.993Z,24.58
2019-03-10T09:00:51.973Z,24.48
2019-03-10T09:04:04.551Z,24.39
2019-03-10T09:07:12.723Z,24.04
2019-03-10T09:10:19.839Z,23.55
2019-03-10T09:13:37.831Z,22.15
2019-03-10T09:16:36.600Z,20.95
2019-03-10T09:19:48.805Z,21.46
2019-03-10T09:22:57.581Z,21.98
2019-03-10T09:26:13.608Z,22.60
2019-03-10T09:29:22.727Z,23.06
2019-03-10T09:32:31.778Z,23.08
2019-03-10T09:35:33.568Z,22.79
2019-03-10T09:38:48.707Z,22.88
2019-03-10T09:41:46.371Z,22.97
2019-03-10T09:44:49.662Z,23.00
2019-03-10T09:47:49.630Z,22.89
2019-03-10T09:51:04.985Z,23.11
2019-03-10T09:54:26.258Z,23.02
2019-03-10T09:57:38.275Z,23.20
2019-03-10T10:00:56.264Z,23.25
2019-03-10T10:04:11.430Z,22.92
2019-03-10T10:07:29.241Z,22.87
2019-03-10T10:10:37.990Z,22.73
2019-03-10T10:13:52.120Z,22.81
2019-03-10T10:17:11.217Z,22.91
2019-03-10T10:20:17.089Z,22.55
2019-03-10T10:23:31.487Z,22.48
2019-03-10T10:26:34.560Z,22.41
2019-03-10T10:29:46.491Z,22.36
2019-03-10T10:32:58.819Z,22.29
2019-03-10T10:36:26.164Z,22.65
2019-03-10T10:39:41.029Z,22.84
2019-03-10T10:42:48.771Z,22.82
2019-03-10T10:45:58.007Z,22.95
2019-03-10T10:49:16.230Z,23.06
2019-03-10T10:52:27.787Z,23.16
2019-03-10T10:55:36.815Z,22.98
2019-03-10T10:58:58.316Z,22.92
2019-03-10T11:02:14.907Z,22.65
2019-03-10T11:05:32.895Z,22.41
2019-03-10T11:08:51.378Z,22.35
2019-03-10T11:11:57.874Z,22.31
2019-03-10T11:15:19.456Z,22.26
2019-03-10T11:18:27.139Z,22.16
2019-03-10T11:21:32.539Z,22.23
2019-03-10T11:24:41.821Z,21.94
2019-03-10T11:27:47.685Z,21.55
2019-03-10T11:31:05.876Z,21.45
2019-03-10T11:34:07.802Z,21.58
2019-03-10T11:37:15.904Z,21.65
2019-03-10T11:40:28.668Z,21.79
2019-03-10T11:43:38.251Z,21.92
2019-03-10T11:46:39.155Z,21.86
2019-03-10T11:49:48.058Z,21.86
2019-03-10T11:52:57.466Z,21.68
2019-03-10T11:56:03.669Z,21.73
2019-03-10T11:59:14.076Z,21.89
2019-03-10T12:02:33.654Z,22.05
2019-03-10T12:05:44.083Z,21.98
2019-03-10T12:08:45.694Z,21.87
2019-03-10T12:11:36.180Z,22.00
2019-03-10T12:14:27.005Z,22.07
2019-03-10T12:17:17.288Z,22.05
2019-03-10T12:20:08.493Z,22.18
2019-03-10T12:22:58.740Z,22.14
2019-03-10T12:25:49.079Z,22.22
2019-03-10T12:28:41.565Z,22.23
2019-03-10T12:31:31.243Z,22.24
2019-03-10T12:34:21.507Z,22.31
2019-03-10T12:37:11.892Z,22.40
2019-03-10T12:40:01.920Z,22.22
2019-03-10T12:42:52.289Z,22.21
2019-03-10T12:45:42.409Z,21.96
2019-03-10T12:48:32.822Z,21.46
2019-03-10T12:51:23.275Z,21.32
2019-03-10T12:54:13.587Z,21.03
2019-03-10T12:57:03.690Z,20.96
2019-03-10T12:59:53.691Z,21.03
2019-03-10T13:02:43.892Z,21.19
2019-03-10T13:05:34.326Z,21.15
2019-03-10T13:08:24.676Z,21.23
2019-03-10T13:11:14.968Z,21.31
2019-03-10T13:14:05.577Z,21.39
2019-03-10T13:16:56.983Z,21.47
2019-03-10T13:19:47.037Z,21.55
2019-03-10T13:22:37.380Z,21.06
2019-03-10T13:25:27.571Z,21.14
2019-03-10T13:28:17.634Z,21.11
2019-03-10T13:31:07.818Z,21.16
2019-03-10T13:33:58.285Z,21.07
2019-03-10T13:36:48.457Z,21.15
2019-03-10T13:39:39.708Z,21.26
2019-03-10T13:42:29.932Z,21.45
2019-03-10T13:45:20.249Z,21.56
2019-03-10T13:48:10.666Z,21.70
2019-03-10T13:51:01.139Z,21.86
2019-03-10T13:53:51.379Z,21.86
2019-03-10T13:56:41.705Z,21.78
2019-03-10T13:59:31.940Z,21.76
2019-03-10T14:02:22.210Z,21.72
2019-03-10T14:05:12.212Z,21.74
2019-03-10T14:08:02.561Z,21.59
2019-03-10T14:10:52.797Z,21.54
2019-03-10T14:13:43.316Z,21.48
2019-03-10T14:16:33.801Z,21.40
2019-03-10T14:19:23.839Z,21.45
2019-03-10T14:22:14.099Z,21.38
2019-03-10T14:25:04.295Z,21.48
2019-03-10T14:27:54.261Z,21.41
2019-03-10T14:30:44.637Z,21.39
2019-03-10T14:33:35.041Z,21.42
2019-03-10T14:36:25.186Z,21.40
2019-03-10T14:39:16.533Z,21.34
2019-03-10T14:42:06.939Z,21.32
2019-03-10T14:44:57.118Z,21.32
2019-03-10T14:47:47.352Z,21.43
2019-03-10T14:50:38.683Z,21.39
2019-03-10T14:53:28.759Z,21.39
2019-03-10T14:56:19.140Z,21.34
2019-03-10T14:59:09.463Z,21.32
2019-03-10T15:02:00.449Z,21.48
2019-03-10T15:04:51.003Z,21.47
2019-03-10T15:07:41.065Z,21.40
2019-03-10T15:10:31.377Z,21.38
2019-03-10T15:13:21.543Z,21.35
2019-03-10T15:16:11.885Z,21.43
2019-03-10T15:19:02.042Z,21.49
2019-03-10T15:21:53.239Z,21.41
2019-03-10T15:24:43.235Z,21.30
2019-03-10T15:27:33.649Z,21.19
2019-03-10T15:30:23.935Z,21.07
2019-03-10T15:33:14.267Z,20.89
2019-03-10T15:36:04.483Z,20.75
2019-03-10T15:38:54.819Z,20.61
2019-03-10T15:41:45.109Z,20.30
2019-03-10T15:44:35.581Z,20.20
2019-03-10T15:47:25.923Z,19.89
2019-03-10T15:50:23.817Z,19.89
2019-03-10T15:53:13.819Z,19.70
2019-03-10T15:56:04.174Z,19.58
2019-03-10T15:58:57.103Z,19.39
2019-03-10T16:01:47.643Z,19.27
2019-03-10T16:04:37.986Z,19.14
2019-03-10T16:07:28.428Z,19.04
2019-03-10T16:10:18.457Z,18.96
2019-03-10T16:13:08.757Z,18.96
2019-03-10T16:15:58.704Z,18.70
2019-03-10T16:18:50.979Z,18.70
2019-03-10T16:21:40.744Z,18.59
2019-03-10T16:24:31.289Z,18.60
2019-03-10T16:27:21.496Z,18.62
2019-03-10T16:30:14.694Z,18.55
2019-03-10T16:33:04.613Z,18.39
2019-03-10T16:35:54.995Z,18.31
2019-03-10T16:38:45.205Z,18.30
2019-03-10T16:41:35.364Z,18.23
2019-03-10T16:44:25.292Z,18.14
2019-03-10T16:47:15.662Z,18.14
2019-03-10T16:50:06.516Z,18.13
2019-03-10T16:52:56.870Z,18.03
2019-03-10T16:55:47.179Z,17.99
2019-03-10T16:58:37.440Z,17.94
2019-03-10T17:01:27.397Z,17.97
2019-03-10T17:04:18.090Z,17.88
2019-03-10T17:07:08.572Z,17.80
2019-03-10T17:09:59.015Z,17.77
2019-03-10T17:12:49.275Z,17.74
2019-03-10T17:15:39.354Z,17.77
2019-03-10T17:18:29.706Z,17.60
2019-03-10T17:21:21.075Z,17.55
2019-03-10T17:24:11.114Z,17.47
2019-03-10T17:27:01.519Z,17.50
2019-03-10T17:29:53.807Z,17.42
2019-03-10T17:32:44.210Z,17.44
2019-03-10T17:35:34.365Z,17.49
2019-03-10T17:38:24.556Z,17.49
2019-03-10T17:41:14.829Z,17.48
2019-03-10T17:44:05.321Z,17.57
2019-03-10T17:46:55.618Z,17.60
2019-03-10T17:49:46.261Z,17.68
2019-03-10T17:52:36.295Z,17.75
2019-03-10T17:55:26.628Z,17.81
2019-03-10T17:58:17.011Z,17.83
2019-03-10T18:01:07.580Z,17.85
2019-03-10T18:03:57.714Z,17.92
2019-03-10T18:06:48.116Z,17.93
2019-03-10T18:09:39.682Z,17.90
2019-03-10T18:12:30.533Z,17.80
2019-03-10T18:15:20.965Z,17.74
2019-03-10T18:18:11.230Z,17.83
2019-03-10T18:21:01.490Z,17.79
2019-03-10T18:23:51.868Z,17.70
2019-03-10T18:26:42.262Z,17.64
2019-03-10T18:29:32.604Z,17.67
2019-03-10T18:32:22.927Z,17.66
2019-03-10T18:35:12.993Z,17.70
2019-03-10T18:38:04.268Z,17.70
2019-03-10T18:40:54.637Z,17.67
2019-03-10T18:43:46.109Z,17.66
2019-03-10T18:46:36.663Z,17.58
2019-03-10T18:49:28.197Z,17.53
2019-03-10T18:52:20.041Z,17.47
2019-03-10T18:55:11.025Z,17.48
2019-03-10T18:58:01.269Z,17.47
2019-03-10T19:00:51.474Z,17.39
2019-03-10T19:03:41.725Z,17.39
2019-03-10T19:06:32.019Z,17.31
2019-03-10T19:09:22.036Z,17.28
2019-03-10T19:12:12.048Z,17.22
2019-03-10T19:15:02.597Z,17.20
2019-03-10T19:17:52.717Z,17.18
2019-03-10T19:20:42.853Z,17.16
2019-03-10T19:23:33.109Z,17.15
2019-03-10T19:26:23.527Z,17.07
2019-03-10T19:29:13.828Z,17.11
2019-03-10T19:32:04.450Z,16.98
2019-03-10T19:34:54.689Z,17.01
2019-03-10T19:37:45.023Z,16.95
2019-03-10T19:40:35.280Z,16.83
2019-03-10T19:43:25.336Z,16.77
2019-03-10T19:46:15.761Z,16.72
2019-03-10T19:49:06.228Z,16.73
2019-03-10T19:51:57.648Z,16.66
2019-03-10T19:54:50.778Z,16.60
2019-03-10T19:57:41.144Z,16.60
2019-03-10T20:00:31.662Z,16.58
2019-03-10T20:03:21.908Z,16.53
2019-03-10T20:06:12.314Z,16.59
2019-03-10T20:09:02.491Z,16.55
2019-03-10T20:11:54.642Z,16.53
2019-03-10T20:14:44.954Z,16.52
2019-03-10T20:17:34.991Z,16.55
2019-03-10T20:20:25.368Z,16.44
2019-03-10T20:23:16.745Z,16.43
2019-03-10T20:26:07.108Z,16.35
2019-03-10T20:28:57.352Z,16.39
2019-03-10T20:31:47.920Z,16.33
2019-03-10T20:34:38.327Z,16.40
2019-03-10T20:37:28.483Z,16.44
2019-03-10T20:40:18.578Z,16.44
2019-03-10T20:43:08.868Z,16.48
2019-03-10T20:45:58.922Z,16.45
2019-03-10T20:48:49.331Z,16.36
2019-03-10T20:51:39.586Z,16.33
2019-03-10T20:54:29.748Z,16.32
2019-03-10T20:57:20.365Z,16.28
2019-03-10T21:00:15.663Z,16.36
2019-03-10T21:03:06.464Z,16.30
2019-03-10T21:05:56.694Z,16.24
2019-03-10T21:08:48.240Z,16.17
2019-03-10T21:11:38.640Z,16.14
2019-03-10T21:14:28.974Z,16.09
2019-03-10T21:17:19.303Z,16.06
2019-03-10T21:20:10.764Z,16.02
2019-03-10T21:23:01.058Z,16.01
2019-03-10T21:25:51.506Z,15.89
2019-03-10T21:28:41.456Z,15.81
2019-03-10T21:31:32.070Z,15.79
2019-03-10T21:34:24.227Z,15.75
2019-03-10T21:37:14.591Z,15.76
2019-03-10T21:40:05.034Z,15.79
2019-03-10T21:42:55.846Z,15.81
2019-03-10T21:45:46.307Z,15.89
2019-03-10T21:48:36.745Z,16.05
2019-03-10T21:51:28.246Z,16.22
2019-03-10T21:54:18.538Z,16.50
2019-03-10T21:57:08.739Z,16.74
2019-03-10T21:59:59.081Z,16.93
2019-03-10T22:02:49.345Z,17.21
2019-03-10T22:05:39.601Z,17.39
2019-03-10T22:08:29.809Z,17.56
2019-03-10T22:11:20.546Z,17.64
2019-03-10T22:14:11.640Z,17.60
2019-03-10T22:17:02.103Z,17.49
2019-03-10T22:19:53.529Z,17.16
2019-03-10T22:22:49.150Z,17.07
2019-03-10T22:25:35.967Z,16.86
2019-03-10T22:28:26.576Z,16.75
2019-03-10T22:31:16.497Z,16.70
2019-03-10T22:34:06.521Z,16.52
2019-03-10T22:36:57.083Z,16.51
2019-03-10T22:39:47.275Z,16.50
2019-03-10T22:42:37.545Z,16.58
2019-03-10T22:45:27.912Z,16.76
2019-03-10T22:48:18.238Z,16.87
2019-03-10T22:51:08.477Z,17.04
2019-03-10T22:53:58.546Z,17.05
2019-03-10T22:56:48.861Z,16.96
2019-03-10T22:59:39.069Z,16.85
2019-03-10T23:02:29.490Z,16.85
2019-03-10T23:05:19.736Z,16.84
2019-03-10T23:08:10.053Z,16.85
2019-03-10T23:11:00.309Z,16.76
2019-03-10T23:13:50.576Z,16.87
2019-03-10T23:16:40.680Z,16.79
2019-03-10T23:19:31.188Z,16.75
2019-03-10T23:22:21.346Z,16.65
2019-03-10T23:25:11.702Z,16.56
2019-03-10T23:28:02.786Z,16.56
2019-03-10T23:30:55.129Z,16.62
2019-03-10T23:33:45.367Z,16.55
2019-03-10T23:36:35.555Z,16.51
2019-03-10T23:39:26.023Z,16.53
2019-03-10T23:42:16.414Z,16.44
2019-03-10T23:45:07.024Z,16.40
2019-03-10T23:47:57.135Z,16.38
2019-03-10T23:50:47.404Z,16.29
2019-03-10T23:53:37.761Z,16.39
2019-03-10T23:56:28.010Z,16.39
2019-03-10T23:59:18.297Z,16.38
